Historyczne dane pomiarowe

Dodano dane terminowe – wersja testowa.

Dane z okresu 1951-2019

Wersja bazy: 1.34 [2019-03-16, lista zmian], aktualizacja planowana na 2019-04-15

Dane meteo z obszaru Polski uzyskane na podstawie danych udostępnionych przez Instytut Meteorologii i Gospodarki Wodnej – Państwowy Instytut Badawczy.

 

Wybierz Datę:    

       

TemperaturaWilgotnośćWiatrCiśnienieOpadyŚniegCzas trwania zjawisk
 Stacja t tx tn tng RH VA  wxwx mslp ppp RRR   cm mm wxwxwxwxwxwxwx
1984-06-13 14.8 21.3 5.9 3.7 68.0- 4.7 3.7---- 0.4------------
1984-06-14 16.1 20.3 13.4 12.5 86.3- 7.0 5.3---- 3.8------------
1984-06-15 12.2 15.0 9.2 8.2 82.8- 6.7 4.0---- 8.5------------
1984-06-16 11.7 13.8 9.6 9.5 93.3- 7.3 3.7---- 1.8------------
1984-06-17 14.2 18.5 10.6 10.5 76.0- 3.7 0.7---- 0.0------------
1984-06-18 14.4 19.4 8.6 7.5 82.0- 5.7 0.0---- 0.0------------
1984-06-19 16.3 23.1 8.3 6.4 75.3- 2.0 1.0---- 0.0------------
1984-06-20 18.1 25.0 10.1 9.3 77.0- 2.0 2.0---- 0.0------------
1984-06-21 19.4 25.7 11.1 10.0 76.3- 4.0 1.0---- 1.0------------
1984-06-22 16.4 23.8 12.0 11.8 75.3- 6.0 2.3---- 0.7------------
1984-06-23 14.6 18.6 11.2 11.0 69.3- 5.0 6.0---- 3.6------------
1984-06-24 12.0 14.8 8.4 7.4 71.3- 5.3 4.3---- 1.2------------
1984-06-25 10.4 13.4 8.1 6.9 71.8- 6.7 6.3---- 4.3------------
1984-06-26 11.4 14.6 8.7 8.5 86.3- 8.0 6.0---- 1.2------------
1984-06-27 14.8 20.2 10.1 9.8 73.5- 7.0 4.7---- 0.0------------
1984-06-28 16.2 20.0 13.9 11.3 76.5- 6.0 3.0---- 0.1------------
1984-06-29 12.6 15.6 10.6 9.8 72.0- 7.0 4.0---- 0.0------------
1984-06-30 10.9 15.5 8.2 6.3 78.8- 4.7 2.0---- 3.8------------
1984-07-01 11.4 16.7 8.2 6.2 79.5- 4.3 2.7---- 0.1------------
1984-07-02 11.8 18.0 5.2 3.8 86.8- 6.7 0.7---- 2.3------------
1984-07-03 10.3 15.0 9.1 6.9 90.3- 8.0 4.0---- 1.3------------
1984-07-04 11.0 13.4 9.5 9.3 89.0- 8.0 4.0---- 2.3------------
1984-07-05 11.4 13.6 10.1 9.7 84.0- 8.0 3.0---- 0.4------------
1984-07-06 11.7 14.5 9.6 9.6 86.8- 5.7 4.7---- 0.0------------
1984-07-07 14.6 19.0 10.7 10.2 74.3- 4.3 1.0---- 0.0------------
1984-07-08 15.8 23.5 5.6 3.1 71.0- 0.3 0.7---- 0.0------------
1984-07-09 18.8 26.8 7.1 5.1 62.5- 0.0 0.0---- 0.0------------
1984-07-10 22.0 30.6 10.8 8.8 64.0- 1.0 4.0---- 0.0------------
1984-07-11 26.7 33.2 17.3 14.3 60.0- 0.0 3.0---- 0.0------------
1984-07-12 24.8 30.7 22.6 18.5 59.0- 3.7 3.0---- 4.1------------
285.6 ms

 

Źródłem pochodzenia danych jest Instytut Meteorologii i Gospodarki Wodnej – Państwowy Instytut Badawczy. Dane Instytutu Meteorologii i Gospodarki Wodnej – Państwowego Instytutu Badawczego zostały przetworzone.

Dane źródłowe można odnaleźć na stronie https://dane.imgw.pl